»·PEaware :: N805RJ KEED-KHMT

N805RJ :: KEED-KHMT

FLIGHT INFORMATION

Flight Status: Arrived
Operator: Privately registered:
United States
More flights under this callsign
Pilot: Rickie J. (22768)
Aircraft: CESSNA 172 SKYHAWK
(C172)
More flights by this aircraft type
Origin: KEED Needles
United States
Destination: KHMT Hemet-Ryan
United States
More flights between these airports :: More routes between these airports
Route: CLIPP V12 V514 V64 HEMET
File this flight plan on PilotEdge
Remarks:
Altitude:
(Current/Filed)
12,500ft
Speed:
(Current/Filed)
120kts
Departed: 09-Jul-20 07:54 AM
Arrived: 09-Jul-20 09:31 AM
Distance/Time
Traveled:
134nm/1:37
Distance/Time
To Go:
Arrived

Flight Plot

Page will automatically refresh every two minutes.

Flight plan parsing failed; only flown route is shown


Map Options




Map Legend


Flown Route
Filed Route
Departure Airport
Arrival Airport
Navaid (VOR, NDB)
Fix

Horizontal Profiles

Position Reports

Time Latitude Longitude Heading Altitude Ground
Speed
09-Jul-20 07:27 34.763985 -114.620737 288 986ft 0kts
09-Jul-20 07:28 34.763985 -114.620737 288 986ft 0kts
09-Jul-20 07:29 34.763985 -114.620737 288 986ft 0kts
09-Jul-20 07:30 34.763985 -114.620737 288 986ft 0kts
09-Jul-20 07:31 34.763985 -114.620737 288 986ft 0kts
09-Jul-20 07:32 34.763986 -114.620738 288 986ft 0kts
09-Jul-20 07:33 34.763985 -114.620737 288 986ft 0kts
09-Jul-20 07:34 34.763985 -114.620737 288 986ft 0kts
09-Jul-20 07:35 34.763985 -114.620737 288 986ft 0kts
09-Jul-20 07:36 34.763985 -114.620737 288 986ft 0kts
09-Jul-20 07:37 34.763985 -114.620737 288 986ft 0kts
09-Jul-20 07:38 34.763985 -114.620737 288 986ft 0kts
09-Jul-20 07:39 34.763985 -114.620737 288 986ft 0kts
09-Jul-20 07:40 34.763985 -114.620737 288 986ft 0kts
09-Jul-20 07:41 34.763985 -114.620737 288 986ft 0kts
09-Jul-20 07:42 34.763985 -114.620737 288 986ft 0kts
09-Jul-20 07:43 34.763985 -114.620737 288 986ft 0kts
09-Jul-20 07:44 34.763985 -114.620737 288 986ft 0kts
09-Jul-20 07:45 34.763985 -114.620737 288 986ft 0kts
09-Jul-20 07:46 34.763999 -114.620853 239 986ft 1kts
09-Jul-20 07:47 34.763113 -114.620667 170 986ft 5kts
09-Jul-20 07:48 34.761521 -114.619533 147 986ft 8kts
09-Jul-20 07:49 34.761123 -114.619424 180 986ft 0kts
09-Jul-20 07:50 34.761123 -114.619424 180 986ft 0kts
09-Jul-20 07:51 34.761123 -114.619424 180 986ft 0kts
09-Jul-20 07:52 34.760721 -114.619479 216 986ft 4kts
09-Jul-20 07:53 34.764285 -114.627591 299 986ft 93kts
09-Jul-20 07:54 34.777501 -114.659310 295 1641ft 102kts
09-Jul-20 07:55 34.779900 -114.688767 209 2436ft 95kts
09-Jul-20 07:56 34.761484 -114.671896 116 3106ft 101kts
09-Jul-20 07:57 34.748806 -114.639891 95 3715ft 109kts
09-Jul-20 07:58 34.769286 -114.632750 289 4319ft 106kts
09-Jul-20 07:59 34.767960 -114.668799 270 4928ft 106kts
09-Jul-20 08:00 34.768663 -114.704244 272 5532ft 103kts
09-Jul-20 08:01 34.769636 -114.738345 271 6133ft 98kts
09-Jul-20 08:02 34.770571 -114.770907 270 6734ft 94kts
09-Jul-20 08:03 34.771464 -114.802326 269 7288ft 93kts
09-Jul-20 08:04 34.772355 -114.833449 267 7788ft 92kts
09-Jul-20 08:05 34.773203 -114.863676 266 8247ft 93kts
09-Jul-20 08:06 34.774068 -114.894811 265 8646ft 95kts
09-Jul-20 08:07 34.774939 -114.926522 263 9009ft 98kts
09-Jul-20 08:08 34.775858 -114.959578 261 9311ft 101kts
09-Jul-20 08:09 34.776767 -114.993429 262 9621ft 101kts
09-Jul-20 08:11 34.777683 -115.027714 261 9927ft 101kts
09-Jul-20 08:12 34.778459 -115.061888 260 10232ft 100kts
09-Jul-20 08:13 34.779095 -115.095854 261 10541ft 99kts
09-Jul-20 08:14 34.779715 -115.129306 261 10846ft 98kts
09-Jul-20 08:15 34.780321 -115.162620 261 11152ft 97kts
09-Jul-20 08:16 34.780915 -115.195708 261 11459ft 96kts
09-Jul-20 08:17 34.781457 -115.228081 262 11761ft 95kts
09-Jul-20 08:18 34.781962 -115.260609 262 11978ft 99kts
09-Jul-20 08:19 34.782522 -115.293759 263 12176ft 100kts
09-Jul-20 08:20 34.779109 -115.325087 217 12374ft 94kts
09-Jul-20 08:21 34.756069 -115.339420 207 12505ft 100kts
09-Jul-20 08:22 34.729869 -115.352404 204 12503ft 106kts
09-Jul-20 08:23 34.702562 -115.364849 204 12503ft 107kts
09-Jul-20 08:24 34.674991 -115.377068 203 12502ft 108kts
09-Jul-20 08:25 34.646902 -115.389403 203 12502ft 108kts
09-Jul-20 08:26 34.619317 -115.401479 203 12502ft 108kts
09-Jul-20 08:27 34.591734 -115.413532 203 12542ft 105kts
09-Jul-20 08:27 34.569911 -115.423054 203 12637ft 104kts
09-Jul-20 08:29 34.538088 -115.436964 203 12593ft 110kts
09-Jul-20 08:30 34.509403 -115.449473 203 12503ft 113kts
09-Jul-20 08:30 34.485772 -115.459760 203 12504ft 110kts
09-Jul-20 08:31 34.457860 -115.471920 203 12505ft 108kts
09-Jul-20 08:32 34.429882 -115.484097 203 12504ft 108kts
09-Jul-20 08:33 34.402047 -115.496202 203 12504ft 108kts
09-Jul-20 08:35 34.369708 -115.510259 203 12503ft 108kts
09-Jul-20 08:35 34.346415 -115.520372 203 12504ft 108kts
09-Jul-20 08:36 34.320608 -115.536575 220 12504ft 107kts
09-Jul-20 08:37 34.298811 -115.560181 222 12504ft 107kts
09-Jul-20 08:38 34.277294 -115.584151 222 12503ft 107kts
09-Jul-20 08:39 34.255836 -115.608247 222 12503ft 107kts
09-Jul-20 08:40 34.234412 -115.632348 222 12503ft 108kts
09-Jul-20 08:41 34.213103 -115.656320 222 12506ft 108kts
09-Jul-20 08:42 34.191446 -115.680673 222 12506ft 109kts
09-Jul-20 08:43 34.169682 -115.705132 222 12506ft 109kts
09-Jul-20 08:44 34.147718 -115.729795 222 12505ft 109kts
09-Jul-20 08:45 34.125961 -115.754208 222 12505ft 109kts
09-Jul-20 08:46 34.102974 -115.776765 215 12505ft 109kts
09-Jul-20 08:47 34.078209 -115.797133 214 12504ft 109kts
09-Jul-20 08:48 34.053319 -115.817396 214 12505ft 110kts
09-Jul-20 08:49 34.028358 -115.837641 214 12505ft 110kts
09-Jul-20 08:50 34.003144 -115.858058 214 12505ft 111kts
09-Jul-20 08:51 33.977940 -115.878449 214 12504ft 111kts
09-Jul-20 08:52 33.952920 -115.898675 214 12504ft 111kts
09-Jul-20 08:53 33.927874 -115.918906 214 12504ft 111kts
09-Jul-20 08:54 33.902653 -115.939264 214 12504ft 111kts
09-Jul-20 08:55 33.877646 -115.959446 214 12507ft 112kts
09-Jul-20 08:56 33.852602 -115.979637 214 12507ft 112kts
09-Jul-20 08:57 33.827263 -116.000052 214 12507ft 112kts
09-Jul-20 08:58 33.802134 -116.020279 214 12507ft 112kts
09-Jul-20 08:59 33.776144 -116.041183 214 12383ft 117kts
09-Jul-20 09:00 33.750636 -116.061674 214 12478ft 109kts
09-Jul-20 09:01 33.726104 -116.081375 214 12503ft 111kts
09-Jul-20 09:02 33.701267 -116.101306 214 12504ft 112kts
09-Jul-20 09:03 33.674034 -116.123152 214 12167ft 126kts
09-Jul-20 09:04 33.645366 -116.146125 213 11779ft 127kts
09-Jul-20 09:05 33.632112 -116.182538 265 11367ft 133kts
09-Jul-20 09:06 33.634381 -116.227296 269 10966ft 135kts
09-Jul-20 09:07 33.638030 -116.272236 270 10565ft 135kts
09-Jul-20 09:08 33.641774 -116.315104 269 10503ft 124kts
09-Jul-20 09:09 33.645388 -116.356467 269 10505ft 123kts
09-Jul-20 09:10 33.648984 -116.397577 269 10505ft 123kts
09-Jul-20 09:11 33.652554 -116.438197 269 10559ft 121kts
09-Jul-20 09:12 33.656167 -116.478860 270 10559ft 123kts
09-Jul-20 09:13 33.659761 -116.520004 270 10558ft 123kts
09-Jul-20 09:14 33.663295 -116.560464 269 10558ft 117kts
09-Jul-20 09:15 33.666729 -116.600803 270 10331ft 132kts
09-Jul-20 09:16 33.670719 -116.646853 271 9524ft 138kts
09-Jul-20 09:17 33.674465 -116.690564 272 8759ft 136kts
09-Jul-20 09:18 33.678126 -116.733476 273 8002ft 136kts
09-Jul-20 09:19 33.681838 -116.777176 275 7231ft 137kts
09-Jul-20 09:20 33.685670 -116.822383 275 6438ft 137kts
09-Jul-20 09:21 33.689224 -116.864345 275 5710ft 113kts
09-Jul-20 09:22 33.697064 -116.900571 289 4907ft 113kts
09-Jul-20 09:23 33.707583 -116.935399 289 4144ft 97kts
09-Jul-20 09:24 33.716470 -116.964785 290 3329ft 94kts
09-Jul-20 09:25 33.725311 -116.993985 289 2597ft 87kts
09-Jul-20 09:26 33.719381 -117.017519 242 2501ft 69kts
09-Jul-20 09:27 33.710449 -117.039251 251 2346ft 76kts
09-Jul-20 09:28 33.723593 -117.045366 53 2054ft 76kts
09-Jul-20 09:29 33.732794 -117.024333 64 1516ft 52kts
09-Jul-20 09:30 33.733674 -117.020744 157 1516ft 0kts
09-Jul-20 09:31 33.733065 -117.020407 156 1516ft 6kts
09-Jul-20 09:32 33.731191 -117.019357 154 1516ft 4kts
09-Jul-20 09:33 33.731168 -117.019063 248 1516ft 0kts
09-Jul-20 09:34 33.731168 -117.019063 248 1516ft 0kts
09-Jul-20 09:35 33.731168 -117.019063 248 1516ft 0kts
09-Jul-20 09:36 33.731168 -117.019063 248 1516ft 0kts
09-Jul-20 09:37 33.731168 -117.019063 248 1516ft 0kts

Navigation Log

Ident Type
Flight plan parsing failed, navigation log unavailable